Macwahoc Plt, Maine
Current Conditions -  °F | °C
As of 11:53 AM on Tuesday 27 Jan 2015 (Local Time) from KMLT Reporting Station
Heavy Snow Heavy Snow  
Wind Chill: -12°   Ceiling: 400
Heat Index:   Visibility: 0.25mi
Dew Point:   Wind: 17mph
Humidity: 80%   Direction: 30°NNE
Pressure: 29.86"   Gusts: 30mph
Location:  45.6117°N, 68.2294°W
Report Text: KMLT 271653Z AUTO 03015G26KT 1/4SM +SN VV004 M14/M17 A2986 RMK AO2 PK WND 36029/1634 SLP125 P0003 T11391167
Loading
Personal Weather Stations






























Interactive Weather Map New forecast layout! Learn more

10-Day Weather Forecast

Advertisements
Track Severe Weather on mobile